createdAt,value
2018-10-18T20:31:00.281Z,23.87
2018-10-18T20:31:00.355Z,8.49
2018-10-18T20:31:00.429Z,8.93
2018-10-18T20:31:00.488Z,8.93
2018-10-18T20:31:00.554Z,13.47
2018-10-18T20:31:00.621Z,7.2
2018-10-18T20:31:00.696Z,6.34
2018-10-18T20:31:00.741Z,6.42
2018-10-18T20:31:00.835Z,7.87
2018-10-18T20:31:01.000Z,10.79
2018-10-18T20:31:01.319Z,7.69
2018-10-18T20:31:01.647Z,6.92
2018-10-18T20:31:01.743Z,8.36
2018-10-18T20:31:01.799Z,8.36
2018-10-18T20:31:01.835Z,9.11
2018-10-18T20:31:01.959Z,12.52
2018-10-18T20:31:02.023Z,6.22
2018-10-18T20:31:02.076Z,7.18
2018-10-18T20:31:02.154Z,6.5
2018-10-18T20:31:02.202Z,7.78
2018-10-18T20:31:02.296Z,8.98
2018-10-18T20:31:02.348Z,9.46
2018-10-18T20:31:02.403Z,9.46
2018-10-18T20:31:02.460Z,8.67
2018-10-18T20:31:02.555Z,15.42
2018-10-18T20:31:02.611Z,7.54
2018-10-18T20:31:02.838Z,10.22
2018-10-18T20:31:02.981Z,10.89
2018-10-18T20:31:03.024Z,9.07
2018-10-18T20:31:03.107Z,9.27
2018-10-18T20:31:03.156Z,9.51
2018-10-18T20:31:03.199Z,8.06
2018-10-18T20:31:03.301Z,8.06
2018-10-18T20:31:03.337Z,19.19
2018-10-18T20:31:03.396Z,17.25
2018-10-18T20:31:03.484Z,8.66
2018-10-18T20:31:03.536Z,8.8
2018-10-18T20:31:03.594Z,6.71
2018-10-18T20:31:03.670Z,5.94
2018-10-18T20:31:03.766Z,9.74
2018-10-18T20:31:03.830Z,11.53
2018-10-18T20:31:03.906Z,14.29
2018-10-18T20:31:03.950Z,14.29
2018-10-18T20:31:04.012Z,20.87
2018-10-18T20:31:04.096Z,23.03
2018-10-18T20:31:04.132Z,5.83
2018-10-18T20:31:04.235Z,8.21
2018-10-18T20:31:04.295Z,6.75
2018-10-18T20:31:04.337Z,10.87
2018-10-18T20:31:04.377Z,5.85
2018-10-18T20:31:04.450Z,6.92
2018-10-18T20:31:04.563Z,15.69
2018-10-18T20:31:04.627Z,15.69
2018-10-18T20:31:04.698Z,18.63
2018-10-18T20:31:04.780Z,7.22
2018-10-18T20:31:04.834Z,8.74
2018-10-18T20:31:04.900Z,8.22
2018-10-18T20:31:05.008Z,6.91
2018-10-18T20:31:05.078Z,16.69
2018-10-18T20:31:05.116Z,18.59
2018-10-18T20:31:05.206Z,5.86
2018-10-18T20:31:05.331Z,6.3
2018-10-18T20:31:05.381Z,6.3
2018-10-18T20:31:05.422Z,9.53
2018-10-18T20:31:05.497Z,11.11
2018-10-18T20:31:05.561Z,9.84
2018-10-18T20:31:05.632Z,9.7
2018-10-18T20:31:05.664Z,6.27
2018-10-18T20:31:05.736Z,7.91
2018-10-18T20:31:05.800Z,5.93
2018-10-18T20:31:05.871Z,6.56
2018-10-18T20:31:05.911Z,6.56
2018-10-18T20:31:05.990Z,9.33
2018-10-18T20:31:06.054Z,6.95
2018-10-18T20:31:06.138Z,5
2018-10-18T20:31:06.220Z,7.11
2018-10-18T20:31:06.288Z,5.93
2018-10-18T20:31:06.340Z,9.12
2018-10-18T20:31:06.412Z,5.22
2018-10-18T20:31:06.477Z,5.94
2018-10-18T20:31:06.595Z,5.98
2018-10-18T20:31:06.615Z,5.98
2018-10-18T20:31:06.666Z,8.11
2018-10-18T20:31:06.747Z,8.43
2018-10-18T20:31:06.804Z,6.16
2018-10-18T20:31:06.879Z,8.99
2018-10-18T20:31:06.968Z,11.62
2018-10-18T20:31:07.086Z,4.34
2018-10-18T20:31:07.142Z,6.76
2018-10-18T20:31:07.221Z,6.27
2018-10-18T20:31:07.314Z,6.31
2018-10-18T20:31:07.380Z,6.31
2018-10-18T20:31:07.394Z,5.95
2018-10-18T20:31:07.458Z,6.56
2018-10-18T20:31:07.543Z,10.89
2018-10-18T20:31:07.600Z,11.45
2018-10-18T20:31:07.677Z,7.08
2018-10-18T20:31:07.764Z,4.67
2018-10-18T20:31:07.871Z,24.05
2018-10-18T20:31:07.948Z,7.64
2018-10-18T20:31:08.037Z,5.93
2018-10-18T20:31:08.108Z,5.93
2018-10-18T20:31:08.175Z,9
2018-10-18T20:31:08.242Z,5.37
2018-10-18T20:31:08.312Z,6.3
2018-10-18T20:31:08.358Z,7.05
2018-10-18T20:31:08.414Z,9.35
2018-10-18T20:31:08.549Z,4.36
2018-10-18T20:31:08.630Z,5.35
2018-10-18T20:31:08.669Z,7.63
2018-10-18T20:31:08.746Z,6.4
2018-10-18T20:31:08.903Z,6.4
2018-10-18T20:31:08.983Z,5.82
2018-10-18T20:31:09.068Z,5.52
2018-10-18T20:31:09.135Z,14.81
2018-10-18T20:31:09.198Z,4.97
2018-10-18T20:31:09.290Z,5.56
2018-10-18T20:31:09.327Z,8.46
2018-10-18T20:31:09.393Z,9.58
2018-10-18T20:31:09.449Z,8.49
2018-10-18T20:31:09.513Z,8.49
2018-10-18T20:31:09.590Z,6.45
2018-10-18T20:31:09.659Z,9.35
2018-10-18T20:31:09.749Z,5.67
2018-10-18T20:31:09.828Z,5.5
2018-10-18T20:31:09.937Z,5.77
2018-10-18T20:31:10.021Z,7.96
2018-10-18T20:31:10.082Z,4.16
2018-10-18T20:31:10.097Z,9.29
2018-10-18T20:31:10.158Z,7.34
2018-10-18T20:31:10.229Z,7.34
2018-10-18T20:31:10.284Z,6.45
2018-10-18T20:31:10.356Z,34.77
2018-10-18T20:31:10.420Z,13.18
2018-10-18T20:31:10.451Z,6.13
2018-10-18T20:31:10.528Z,5.65
2018-10-18T20:31:10.640Z,5.56
2018-10-18T20:31:10.700Z,7.4
2018-10-18T20:31:10.780Z,12.66
2018-10-18T20:31:10.835Z,13.96
2018-10-18T20:31:10.887Z,13.96
2018-10-18T20:31:10.992Z,7.19
2018-10-18T20:31:11.022Z,7.48
2018-10-18T20:31:11.084Z,5.98
2018-10-18T20:31:11.158Z,9.11
2018-10-18T20:31:11.235Z,4.31
2018-10-18T20:31:11.306Z,8.07
2018-10-18T20:31:11.386Z,6.91
2018-10-18T20:31:11.459Z,7.08
2018-10-18T20:31:11.530Z,7.08
2018-10-18T20:31:11.585Z,7.08
2018-10-18T20:31:11.643Z,8.58
2018-10-18T20:31:11.737Z,10.79
2018-10-18T20:31:11.823Z,7.99
2018-10-18T20:31:11.880Z,8.54
2018-10-18T20:31:11.931Z,21.55
2018-10-18T20:31:12.027Z,6.55
2018-10-18T20:31:12.057Z,8.38
2018-10-18T20:31:12.124Z,7.59
2018-10-18T20:31:12.221Z,5.66
2018-10-18T20:31:12.341Z,6.73
2018-10-18T20:31:12.463Z,6.37
2018-10-18T20:31:12.567Z,5.69
2018-10-18T20:31:12.603Z,7.18
2018-10-18T20:31:12.694Z,5.84
2018-10-18T20:31:12.738Z,9.39
2018-10-18T20:31:12.791Z,10.41
2018-10-18T20:31:12.851Z,13.58
2018-10-18T20:31:12.913Z,13.58
2018-10-18T20:31:13.001Z,6.96
2018-10-18T20:31:13.043Z,6.94
2018-10-18T20:31:13.108Z,7.61
2018-10-18T20:31:13.284Z,12.57
2018-10-18T20:31:13.316Z,5.52
2018-10-18T20:31:13.444Z,19.51
2018-10-18T20:31:13.523Z,6.69
2018-10-18T20:31:13.629Z,8.2
2018-10-18T20:31:13.719Z,8.05
2018-10-18T20:31:13.842Z,8.05
2018-10-18T20:31:13.929Z,12.97
2018-10-18T20:31:14.092Z,7.83
2018-10-18T20:31:14.153Z,9.31
2018-10-18T20:31:14.239Z,8.87
2018-10-18T20:31:14.289Z,7.65
2018-10-18T20:31:14.349Z,5.27
2018-10-18T20:31:14.403Z,6.01
2018-10-18T20:31:14.465Z,27.42
2018-10-18T20:31:14.535Z,8.61
2018-10-18T20:31:14.586Z,8.61
2018-10-18T20:31:14.678Z,9.51
2018-10-18T20:31:14.742Z,11.55
2018-10-18T20:31:14.900Z,9.02
2018-10-18T20:31:15.019Z,6.07
2018-10-18T20:31:15.115Z,5.57
2018-10-18T20:31:15.174Z,6.96
2018-10-18T20:31:15.267Z,5.94
2018-10-18T20:31:15.296Z,6.72
2018-10-18T20:31:15.361Z,6.41
2018-10-18T20:31:15.419Z,6.41
2018-10-18T20:31:15.475Z,8.48
2018-10-18T20:31:15.565Z,5.36
2018-10-18T20:31:15.621Z,15.35
2018-10-18T20:31:15.697Z,15.37
2018-10-18T20:31:15.797Z,8.7
2018-10-18T20:31:15.906Z,13.35
2018-10-18T20:31:15.989Z,20.5
2018-10-18T20:31:16.061Z,13.24
2018-10-18T20:31:16.113Z,31.31
2018-10-18T20:31:16.214Z,31.31
2018-10-18T20:31:16.279Z,7.54
2018-10-18T20:31:16.357Z,5.9
2018-10-18T20:31:16.421Z,10.01
2018-10-18T20:31:16.496Z,7.89
2018-10-18T20:31:16.530Z,6.82
2018-10-18T20:31:16.583Z,7.43
2018-10-18T20:31:16.683Z,12.94
2018-10-18T20:31:16.745Z,8.65
2018-10-18T20:31:16.843Z,8.65
2018-10-18T20:31:16.885Z,6.35
2018-10-18T20:31:16.947Z,9.81
2018-10-18T20:31:17.004Z,9.62
2018-10-18T20:31:17.065Z,10.98
2018-10-18T20:31:17.182Z,9.69
2018-10-18T20:31:17.224Z,10.12
2018-10-18T20:31:17.271Z,8.76
2018-10-18T20:31:17.368Z,13.13
2018-10-18T20:31:17.408Z,12.16
2018-10-18T20:31:17.527Z,12.16
2018-10-18T20:31:17.593Z,8.11
2018-10-18T20:31:17.633Z,9.21
2018-10-18T20:31:17.712Z,6.18
2018-10-18T20:31:17.812Z,6.97
2018-10-18T20:31:17.892Z,6.22
2018-10-18T20:31:17.947Z,6.91
2018-10-18T20:31:18.017Z,8.83
2018-10-18T20:31:18.083Z,7.68
2018-10-18T20:31:18.154Z,7.84
2018-10-18T20:31:18.211Z,7.84
2018-10-18T20:31:18.338Z,7.54
2018-10-18T20:31:18.389Z,22.14
2018-10-18T20:31:18.494Z,7.4
2018-10-18T20:31:18.587Z,12.03
2018-10-18T20:31:18.693Z,11.83
2018-10-18T20:31:18.799Z,8.59
2018-10-18T20:31:18.896Z,11.14
2018-10-18T20:31:18.942Z,12.09
2018-10-18T20:31:19.009Z,9.23
2018-10-18T20:31:19.076Z,9.23
2018-10-18T20:31:19.124Z,8.17
2018-10-18T20:31:19.222Z,11.75
2018-10-18T20:31:19.262Z,12.2
2018-10-18T20:31:19.317Z,7.6
2018-10-18T20:31:19.392Z,8
2018-10-18T20:31:19.466Z,8.83
2018-10-18T20:31:19.550Z,16.29
2018-10-18T20:31:19.660Z,7.05
2018-10-18T20:31:19.732Z,8.33
2018-10-18T20:31:19.851Z,8.33
2018-10-18T20:31:19.978Z,10.18
2018-10-18T20:31:19.998Z,13.98
2018-10-18T20:31:20.076Z,8.92
2018-10-18T20:31:20.145Z,12.51
2018-10-18T20:31:20.214Z,22.91
2018-10-18T20:31:20.261Z,15.73
2018-10-18T20:31:20.310Z,8.99
2018-10-18T20:31:20.381Z,13
2018-10-18T20:31:20.497Z,13
2018-10-18T20:31:20.597Z,19.58
2018-10-18T20:31:20.635Z,14.56
2018-10-18T20:31:20.715Z,14.18
2018-10-18T20:31:20.753Z,11.41
2018-10-18T20:31:20.834Z,16.86
2018-10-18T20:31:20.896Z,23.53
2018-10-18T20:31:20.935Z,11.97
2018-10-18T20:31:21.023Z,16.39
2018-10-18T20:31:21.091Z,30.8
2018-10-18T20:31:21.144Z,30.8
2018-10-18T20:31:21.232Z,15.14
2018-10-18T20:31:21.307Z,32.46
2018-10-18T20:31:21.376Z,19.07
2018-10-18T20:31:21.425Z,15.87
2018-10-18T20:31:21.493Z,18.13
2018-10-18T20:31:21.571Z,13.47
2018-10-18T20:31:21.610Z,21.9
2018-10-18T20:31:21.683Z,21.78
2018-10-18T20:31:21.762Z,19.65
2018-10-18T20:31:21.831Z,19.65
2018-10-18T20:31:21.915Z,47.15
2018-10-18T20:31:21.969Z,16.53
2018-10-18T20:31:22.051Z,13.06
2018-10-18T20:31:22.141Z,17.19
2018-10-18T20:31:22.203Z,15.75
2018-10-18T20:31:22.260Z,24.11
2018-10-18T20:31:22.332Z,15.83
2018-10-18T20:31:22.392Z,18.11
2018-10-18T20:31:22.445Z,13.13
2018-10-18T20:31:22.510Z,13.13
2018-10-18T20:31:22.599Z,17.75
2018-10-18T20:31:22.626Z,9.97
2018-10-18T20:31:22.719Z,17.08
2018-10-18T20:31:22.756Z,41.02
2018-10-18T20:31:22.842Z,16.21
2018-10-18T20:31:22.925Z,11.89
2018-10-18T20:31:23.034Z,14.92
2018-10-18T20:31:23.154Z,10.25
2018-10-18T20:31:23.248Z,37.55
2018-10-18T20:31:23.334Z,37.55
2018-10-18T20:31:23.376Z,9.4
2018-10-18T20:31:23.486Z,12.59
2018-10-18T20:31:23.551Z,26.36
2018-10-18T20:31:23.591Z,37.59
2018-10-18T20:31:23.649Z,8.36
2018-10-18T20:31:23.734Z,8.44
2018-10-18T20:31:23.802Z,9.7
2018-10-18T20:31:23.884Z,16.25
2018-10-18T20:31:23.933Z,16.25
2018-10-18T20:31:23.996Z,8.88
2018-10-18T20:31:24.095Z,18.38
2018-10-18T20:31:24.172Z,20.48
2018-10-18T20:31:24.274Z,19.84
2018-10-18T20:31:24.350Z,14.28
2018-10-18T20:31:24.433Z,14.17
2018-10-18T20:31:24.539Z,16.14
2018-10-18T20:31:24.582Z,18.86
2018-10-18T20:31:24.613Z,13.01
2018-10-18T20:31:24.678Z,13.01
2018-10-18T20:31:24.741Z,12.51
2018-10-18T20:31:24.825Z,12.09
2018-10-18T20:31:24.963Z,15.96
2018-10-18T20:31:25.039Z,13.62
2018-10-18T20:31:25.146Z,12.17
2018-10-18T20:31:25.212Z,12.12
2018-10-18T20:31:25.317Z,14.25
2018-10-18T20:31:25.354Z,13.42
2018-10-18T20:31:25.439Z,16.71
2018-10-18T20:31:25.502Z,16.71
2018-10-18T20:31:25.572Z,18.14
2018-10-18T20:31:25.643Z,12.63
2018-10-18T20:31:25.721Z,9.53
2018-10-18T20:31:25.784Z,16.08
2018-10-18T20:31:25.847Z,14.61
2018-10-18T20:31:25.949Z,21.57
2018-10-18T20:31:26.061Z,7.1
2018-10-18T20:31:26.102Z,9.85
2018-10-18T20:31:26.153Z,12.01
2018-10-18T20:31:26.216Z,12.01
2018-10-18T20:31:26.305Z,24.01
2018-10-18T20:31:26.380Z,37.08
2018-10-18T20:31:26.435Z,17.36
2018-10-18T20:31:26.489Z,14.9
2018-10-18T20:31:26.550Z,9.57
2018-10-18T20:31:26.623Z,13.75
2018-10-18T20:31:26.719Z,10.67
2018-10-18T20:31:26.785Z,11.93
2018-10-18T20:31:26.863Z,11.93
2018-10-18T20:31:26.930Z,11.05
2018-10-18T20:31:27.004Z,9.93
2018-10-18T20:31:27.065Z,11.45
2018-10-18T20:31:27.160Z,19.83
2018-10-18T20:31:27.210Z,11.37
2018-10-18T20:31:27.282Z,11.73
2018-10-18T20:31:27.355Z,19.94
2018-10-18T20:31:27.430Z,10.64
2018-10-18T20:31:27.531Z,12.81
2018-10-18T20:31:27.608Z,12.81
2018-10-18T20:32:27.859Z,13.13
2018-10-18T20:32:27.954Z,7.19
2018-10-18T20:32:27.991Z,6.55
2018-10-18T20:32:28.072Z,9.38
2018-10-18T20:32:28.118Z,9.85
2018-10-18T20:32:28.177Z,25.48
2018-10-18T20:32:28.297Z,6.89
2018-10-18T20:32:28.297Z,8.2
2018-10-18T20:32:28.457Z,6.89
2018-10-18T20:32:28.516Z,8.27
2018-10-18T20:32:28.531Z,9.91
2018-10-18T20:32:28.594Z,16.36
2018-10-18T20:32:28.777Z,8.21
2018-10-18T20:32:28.777Z,7.23
2018-10-18T20:32:28.815Z,7.75
2018-10-18T20:32:28.837Z,10.38
2018-10-18T20:32:28.956Z,8.36
2018-10-18T20:32:29.006Z,13.28
2018-10-18T20:32:29.026Z,13.28
2018-10-18T20:32:29.110Z,7.15
2018-10-18T20:32:29.214Z,17.73
2018-10-18T20:32:29.214Z,21.15
2018-10-18T20:32:29.298Z,8.63
2018-10-18T20:32:29.418Z,5.68
2018-10-18T20:32:29.418Z,7.92
2018-10-18T20:32:29.518Z,10.33
2018-10-18T20:32:29.562Z,8.07
2018-10-18T20:32:29.639Z,8.07
2018-10-18T20:32:29.685Z,10.42
2018-10-18T20:32:29.770Z,7.51
2018-10-18T20:32:29.883Z,7.38
2018-10-18T20:32:30.002Z,9.2
2018-10-18T20:32:30.003Z,27.1
2018-10-18T20:32:30.076Z,16.82
2018-10-18T20:32:30.174Z,16.04
2018-10-18T20:32:30.227Z,27
2018-10-18T20:32:30.304Z,9.51
2018-10-18T20:32:30.396Z,9.51
2018-10-18T20:32:30.422Z,10.53
2018-10-18T20:32:30.570Z,8.64
2018-10-18T20:32:30.593Z,7.94
2018-10-18T20:32:30.710Z,12.7
2018-10-18T20:32:30.710Z,8.67
2018-10-18T20:32:30.830Z,7.58
2018-10-18T20:32:30.896Z,14.31
2018-10-18T20:32:31.014Z,5.62
2018-10-18T20:32:31.083Z,14.24
2018-10-18T20:32:31.112Z,14.24
2018-10-18T20:32:31.190Z,6.82
2018-10-18T20:32:31.290Z,10.61
2018-10-18T20:32:31.319Z,7.97
2018-10-18T20:32:31.415Z,28.24
2018-10-18T20:32:31.463Z,8.97
2018-10-18T20:32:31.463Z,12.03
2018-10-18T20:32:31.677Z,10.18
2018-10-18T20:32:31.747Z,29.49
2018-10-18T20:32:31.777Z,29.49
2018-10-18T20:32:31.820Z,14.9
2018-10-18T20:32:31.881Z,7.05
2018-10-18T20:32:31.935Z,18.25
2018-10-18T20:32:32.027Z,10.11
2018-10-18T20:32:32.094Z,16.57
2018-10-18T20:32:32.094Z,15.49
2018-10-18T20:32:32.212Z,6.44
2018-10-18T20:32:32.311Z,10.32
2018-10-18T20:32:32.410Z,9.04
2018-10-18T20:32:32.425Z,9.04
2018-10-18T20:32:32.455Z,13.76
2018-10-18T20:32:32.565Z,15.52
2018-10-18T20:32:32.724Z,12.31
2018-10-18T20:32:32.755Z,9.01
2018-10-18T20:32:32.986Z,10.59
2018-10-18T20:32:33.022Z,11.73
2018-10-18T20:32:33.079Z,8.15
2018-10-18T20:32:33.266Z,8.13
2018-10-18T20:32:33.266Z,9.07
2018-10-18T20:32:33.289Z,8.13
2018-10-18T20:32:33.327Z,8.63
2018-10-18T20:32:33.413Z,15.11
2018-10-18T20:32:33.465Z,12.11
2018-10-18T20:32:33.566Z,11.04
2018-10-18T20:32:33.647Z,23.21
2018-10-18T20:32:33.696Z,12.2
2018-10-18T20:32:33.808Z,6.52
2018-10-18T20:32:33.843Z,7.58
2018-10-18T20:32:33.967Z,7.58
2018-10-18T20:32:33.976Z,7.06
2018-10-18T20:32:34.065Z,6.04
2018-10-18T20:32:34.125Z,8.09
2018-10-18T20:32:34.166Z,13.19
2018-10-18T20:32:34.233Z,11.6
2018-10-18T20:32:34.331Z,15
2018-10-18T20:32:34.364Z,14.45
2018-10-18T20:32:34.485Z,11.01
2018-10-18T20:32:34.523Z,28.28
2018-10-18T20:32:34.570Z,28.28
2018-10-18T20:32:34.644Z,26.85
2018-10-18T20:32:34.696Z,9.22
2018-10-18T20:32:34.823Z,7.78
2018-10-18T20:32:34.832Z,12.88
2018-10-18T20:32:34.918Z,28.11
2018-10-18T20:32:34.954Z,9.2
2018-10-18T20:32:35.005Z,9.32
2018-10-18T20:32:35.064Z,11.49
2018-10-18T20:32:35.180Z,11.17
2018-10-18T20:32:35.292Z,11.17
2018-10-18T20:32:35.371Z,12.96
2018-10-18T20:32:35.462Z,10.92
2018-10-18T20:32:35.588Z,9.53
2018-10-18T20:32:35.674Z,8.68
2018-10-18T20:32:35.711Z,8.35
2018-10-18T20:32:35.787Z,9.06
2018-10-18T20:32:35.836Z,6.39
2018-10-18T20:32:35.934Z,9
2018-10-18T20:32:36.001Z,10.25
2018-10-18T20:32:36.058Z,10.25
2018-10-18T20:32:36.117Z,16.24
2018-10-18T20:32:36.188Z,6.21
2018-10-18T20:32:36.271Z,9.71
2018-10-18T20:32:36.351Z,8.6
2018-10-18T20:32:36.483Z,15.25
2018-10-18T20:32:36.539Z,12.1
2018-10-18T20:32:36.605Z,10.59
2018-10-18T20:32:36.708Z,16.18
2018-10-18T20:32:36.774Z,16.18
2018-10-18T20:32:36.813Z,20.04
2018-10-18T20:32:36.833Z,9.06
2018-10-18T20:32:36.906Z,17.57
2018-10-18T20:32:36.959Z,7.86
2018-10-18T20:32:37.029Z,10.57
2018-10-18T20:32:37.091Z,28.67
2018-10-18T20:32:37.219Z,22.3
2018-10-18T20:32:37.269Z,13.1
2018-10-18T20:32:37.310Z,12.84
2018-10-18T20:32:37.384Z,12.84
2018-10-18T20:32:37.448Z,10.41
2018-10-18T20:32:37.509Z,22.89
2018-10-18T20:32:37.543Z,15.67
2018-10-18T20:32:37.621Z,11.66
2018-10-18T20:32:37.690Z,13.42
2018-10-18T20:32:37.736Z,19.41
2018-10-18T20:32:37.813Z,36.88
2018-10-18T20:32:37.868Z,20.6
2018-10-18T20:32:37.980Z,11.61
2018-10-18T20:32:38.061Z,11.61
2018-10-18T20:32:38.123Z,13.16
2018-10-18T20:32:38.177Z,10.05
2018-10-18T20:32:38.280Z,12.67
2018-10-18T20:32:38.312Z,14.85
2018-10-18T20:32:38.394Z,15.39
2018-10-18T20:32:38.484Z,23.77
2018-10-18T20:32:38.595Z,16.04
2018-10-18T20:32:38.628Z,16.84
2018-10-18T20:32:38.747Z,16.84
2018-10-18T20:32:38.855Z,25.28
2018-10-18T20:32:38.979Z,17.31
2018-10-18T20:32:39.013Z,28.45
2018-10-18T20:32:39.119Z,17.81
2018-10-18T20:32:39.179Z,16.57
2018-10-18T20:32:39.230Z,11.56
2018-10-18T20:32:39.318Z,39.71
2018-10-18T20:32:39.389Z,20.7
2018-10-18T20:32:39.444Z,18.36
2018-10-18T20:32:39.573Z,18.36
2018-10-18T20:32:39.632Z,15.19
2018-10-18T20:32:39.738Z,22.77
2018-10-18T20:32:39.775Z,22.81
2018-10-18T20:32:39.852Z,19.34
2018-10-18T20:32:40.014Z,22.56
2018-10-18T20:32:40.062Z,25.92
2018-10-18T20:32:40.110Z,21.64
2018-10-18T20:32:40.181Z,15.78
2018-10-18T20:32:40.234Z,28.37
2018-10-18T20:32:40.313Z,28.37
2018-10-18T20:32:40.385Z,23.36
2018-10-18T20:32:40.461Z,16.23
2018-10-18T20:32:40.568Z,20.92
2018-10-18T20:32:40.680Z,22.36
2018-10-18T20:32:40.752Z,23.24
2018-10-18T20:32:40.830Z,15.99
2018-10-18T20:32:40.880Z,21.97
2018-10-18T20:32:40.951Z,16.48
2018-10-18T20:32:41.016Z,23.24
2018-10-18T20:32:41.088Z,23.24
2018-10-18T20:32:41.132Z,27.61
2018-10-18T20:32:41.258Z,21.43
2018-10-18T20:32:41.355Z,18.07
2018-10-18T20:32:41.433Z,19.72
2018-10-18T20:32:41.512Z,18.95
2018-10-18T20:32:41.591Z,17.92
2018-10-18T20:32:41.686Z,25.02
2018-10-18T20:32:41.699Z,27.47
2018-10-18T20:32:41.761Z,27.47
2018-10-18T20:32:41.813Z,15.67
2018-10-18T20:32:41.896Z,26.88
2018-10-18T20:32:41.988Z,32.39
2018-10-18T20:32:42.121Z,20.78
2018-10-18T20:32:42.190Z,28.52
2018-10-18T20:32:42.276Z,23.49
2018-10-18T20:32:42.363Z,29.32
2018-10-18T20:32:42.387Z,17.54
2018-10-18T20:32:42.473Z,16.62
2018-10-18T20:32:42.539Z,16.62
2018-10-18T20:32:42.622Z,16.23
2018-10-18T20:32:42.703Z,21.02
2018-10-18T20:32:42.788Z,22.79
2018-10-18T20:32:42.812Z,18.47
2018-10-18T20:32:42.881Z,19.83
2018-10-18T20:32:42.935Z,27.57
2018-10-18T20:32:43.024Z,20.98
2018-10-18T20:32:43.116Z,24.58
2018-10-18T20:32:43.165Z,25.76
2018-10-18T20:32:43.227Z,25.76
2018-10-18T20:32:43.319Z,21.57
2018-10-18T20:32:43.364Z,22.67
2018-10-18T20:32:43.421Z,19.82
2018-10-18T20:32:43.477Z,22.36
2018-10-18T20:32:43.564Z,24.86
2018-10-18T20:32:43.612Z,25.04
2018-10-18T20:32:43.664Z,28.54
2018-10-18T20:32:43.756Z,30.08
2018-10-18T20:32:43.894Z,19.92
2018-10-18T20:32:43.932Z,19.92
2018-10-18T20:32:44.056Z,20.21
2018-10-18T20:32:44.081Z,23.12
2018-10-18T20:32:44.142Z,23.14
2018-10-18T20:32:44.209Z,25.05
2018-10-18T20:32:44.271Z,26.7
2018-10-18T20:32:44.312Z,20.92
2018-10-18T20:32:44.406Z,35.13
2018-10-18T20:32:44.439Z,21.98
2018-10-18T20:32:44.512Z,21.98
2018-10-18T20:32:44.581Z,22.83
2018-10-18T20:32:44.704Z,23.7
2018-10-18T20:32:44.749Z,20.75
2018-10-18T20:32:44.801Z,20.26
2018-10-18T20:32:44.891Z,22.9
2018-10-18T20:32:44.949Z,20.29
2018-10-18T20:32:45.011Z,24.63
2018-10-18T20:32:45.102Z,18.29
2018-10-18T20:32:45.135Z,29.93
2018-10-18T20:32:45.220Z,29.93
2018-10-18T20:32:45.267Z,21.66
2018-10-18T20:32:45.336Z,37.11
2018-10-18T20:32:45.442Z,63.85
2018-10-18T20:32:45.552Z,43.88
2018-10-18T20:32:45.613Z,19.47
2018-10-18T20:32:45.681Z,17.5
2018-10-18T20:32:45.740Z,37.47
2018-10-18T20:32:45.812Z,29.07
2018-10-18T20:32:45.879Z,19.29
2018-10-18T20:32:45.913Z,19.29
2018-10-18T20:32:45.986Z,29.53
2018-10-18T20:32:46.062Z,24.41
2018-10-18T20:32:46.208Z,26.35
2018-10-18T20:32:46.217Z,23.2
2018-10-18T20:32:46.293Z,28.06
2018-10-18T20:33:46.778Z,29.42
2018-10-18T20:34:47.323Z,44.33
2018-10-18T20:38:47.838Z,38.13
2018-10-18T20:39:48.381Z,39.36
2018-10-18T20:43:48.902Z,50.79
2018-10-18T20:44:49.476Z,21.06
2018-10-18T20:48:49.930Z,30.39
2018-10-18T20:49:50.532Z,24.88
2018-10-18T20:50:50.989Z,24.88
2018-10-18T20:54:51.504Z,27.8
2018-10-18T20:55:52.180Z,22.31
2018-10-18T20:59:52.731Z,22.29
2018-10-18T21:00:53.186Z,23.66
2018-10-18T21:04:53.691Z,21.79
2018-10-18T21:05:54.198Z,23.9
2018-10-18T21:09:54.841Z,27.07
2018-10-18T21:10:55.418Z,25.75
2018-10-18T21:14:55.942Z,26.48
2018-10-18T21:15:56.445Z,26.48
2018-10-18T21:16:56.927Z,38.44
2018-10-18T21:20:57.395Z,23.88
2018-10-18T21:21:58.055Z,24.61
2018-10-18T21:25:58.555Z,24.67
2018-10-18T21:26:59.062Z,21.1
2018-10-18T21:30:59.470Z,27.41
2018-10-18T21:31:59.967Z,21.78
2018-10-18T21:36:00.539Z,24.34
2018-10-18T21:37:00.992Z,29.91
2018-10-18T21:41:01.460Z,36.23
2018-10-18T21:42:01.855Z,36.23
2018-10-18T21:43:02.487Z,27.48
2018-10-18T21:47:03.071Z,23.55
2018-10-18T21:48:03.544Z,34.99
2018-10-18T21:52:04.056Z,23.48
2018-10-18T21:53:04.761Z,24.39
2018-10-18T21:57:05.485Z,20.73
2018-10-18T21:58:06.043Z,21.86
2018-10-18T22:02:06.545Z,29.24
2018-10-18T22:03:07.102Z,19.56
2018-10-18T22:07:07.510Z,30.36
2018-10-18T22:08:08.060Z,30.36
2018-10-18T22:09:08.679Z,24.81
2018-10-18T22:13:09.125Z,25.1
2018-10-18T22:14:09.632Z,19.82
2018-10-18T22:18:10.231Z,24.55
2018-10-18T22:19:11.011Z,25.39
2018-10-18T22:23:11.527Z,26.99
2018-10-18T22:24:11.907Z,40.62
2018-10-18T22:28:12.409Z,31.11
2018-10-18T22:29:12.908Z,25.23
2018-10-18T22:30:13.961Z,25.23
2018-10-18T22:34:14.460Z,28.85
2018-10-18T22:35:15.040Z,24.5
2018-10-18T22:39:15.476Z,22.38
2018-10-18T22:40:15.995Z,28.71
2018-10-18T22:44:16.621Z,30.49
2018-10-18T22:45:17.522Z,16.21
2018-10-18T22:49:17.932Z,19.26
2018-10-18T22:50:18.563Z,34.17
2018-10-18T22:54:19.048Z,22.68
2018-10-18T22:55:19.601Z,35.02
2018-10-18T22:56:20.096Z,35.02
2018-10-18T23:00:20.851Z,31.96
2018-10-18T23:01:21.320Z,38.51
2018-10-18T23:05:21.755Z,24.61
2018-10-18T23:06:22.270Z,21.85
2018-10-18T23:10:22.720Z,24.32
2018-10-18T23:11:23.106Z,35.38
2018-10-18T23:15:23.734Z,26.04
2018-10-18T23:16:24.175Z,17.93
2018-10-18T23:20:24.660Z,22.57
2018-10-18T23:21:25.229Z,22.57
2018-10-18T23:22:25.731Z,32.39
2018-10-18T23:26:26.179Z,36.43
2018-10-18T23:27:26.828Z,31.26
2018-10-18T23:31:27.299Z,42.2
2018-10-18T23:32:27.776Z,28.64
2018-10-18T23:36:28.287Z,28.1
2018-10-18T23:37:28.796Z,31.47
2018-10-18T23:41:29.261Z,32.66
2018-10-18T23:42:29.865Z,23.31
2018-10-18T23:46:30.371Z,33.36
2018-10-18T23:47:30.848Z,33.36
2018-10-18T23:48:31.348Z,19.61
2018-10-18T23:52:31.721Z,23.48
2018-10-18T23:53:32.150Z,28.03
2018-10-18T23:57:32.808Z,32.66
2018-10-18T23:58:33.231Z,19.09
